Terminal Aerodrome Forecast
Issued by NWS

Home | Current Version | Previous Version | Text Only | Print | Product List | Glossary On
Versions: 1 2 3 4 5 6 7 8 9 10 11 12 13 14 15 16
000
FTUS46 KPDT 222300
TAFPSC
TAF
KPSC 222320Z 2300/2324 34007KT P6SM VCTS BKN080CB OVC120CB
     FM230600 35007KT P6SM VCTS BKN080CB OVC120CB
     FM231200 VRB06KT P6SM BKN120
     FM231800 25015G25KT P6SM SCT050 BKN100=

USA.gov is the U.S. government's official web portal to all federal, state and local government web resources and services.